Time;durP1;ratioP1;P1;durP2;ratioP2;P2;SDS_P1;SDS_P2;PMS_P1;PMS_P2;Temp;Humidity;BMP_temperature;BMP_pressure;BME280_temperature;BME280_humidity;BME280_pressure;Samples;Min_cycle;Max_cycle;Signal;HPM_P1;HPM_P2
2021/05/15 00:00:07;;;;;;;4.93;1.60;;;9.40;99.90;;;10.44;100.00;97365.09;5068165;28;21003;-83
2021/05/15 00:02:35;;;;;;;7.90;1.47;;;9.50;99.90;;;10.49;100.00;97362.66;5060192;28;20865;-83
2021/05/15 00:05:03;;;;;;;4.53;2.33;;;9.50;99.90;;;10.54;100.00;97360.25;5057605;28;20559;-82
2021/05/15 00:07:30;;;;;;;1.67;1.50;;;9.70;99.90;;;10.51;100.00;97358.03;5051878;28;20885;-82
2021/05/15 00:09:56;;;;;;;6.00;2.60;;;9.60;99.90;;;10.43;100.00;97355.63;5066235;28;20458;-86
2021/05/15 00:12:23;;;;;;;8.07;2.40;;;9.50;99.90;;;10.43;100.00;97355.63;5060182;28;21248;-83
2021/05/15 00:14:51;;;;;;;3.13;1.60;;;9.40;99.90;;;10.42;100.00;97348.78;5061177;28;20523;-83
2021/05/15 00:17:18;;;;;;;2.67;1.40;;;9.50;99.90;;;10.40;100.00;97342.97;5060323;28;20449;-82
2021/05/15 00:19:47;;;;;;;3.40;1.80;;;9.50;99.90;;;10.33;100.00;97351.81;5055419;28;20484;-82
2021/05/15 00:22:15;;;;;;;1.37;1.27;;;9.40;99.90;;;10.42;100.00;97348.78;5058118;28;20445;-84
2021/05/15 00:24:42;;;;;;;2.00;1.30;;;9.40;99.90;;;10.40;100.00;97342.16;5058605;28;20448;-83
2021/05/15 00:27:09;;;;;;;1.73;1.43;;;9.40;99.90;;;10.40;100.00;97342.97;5052275;28;20473;-82
2021/05/15 00:29:36;;;;;;;2.80;1.50;;;9.40;99.90;;;10.45;100.00;97339.72;5053446;28;20483;-83
2021/05/15 00:32:03;;;;;;;6.80;1.37;;;9.50;99.90;;;10.43;100.00;97339.94;5058423;28;20443;-83
2021/05/15 00:34:30;;;;;;;3.43;1.30;;;9.50;99.90;;;10.54;100.00;97341.94;5056645;28;20494;-82
2021/05/15 00:36:58;;;;;;;2.40;1.30;;;9.60;99.90;;;10.57;100.00;97341.53;5058101;28;20959;-83
2021/05/15 00:39:25;;;;;;;3.27;1.60;;;9.60;99.90;;;10.62;100.00;97334.91;5060415;28;20673;-82
2021/05/15 00:41:52;;;;;;;2.47;1.80;;;9.70;99.90;;;10.68;100.00;97334.06;5062934;28;20468;-83
2021/05/15 00:44:29;;;;;;;3.37;1.90;;;9.80;99.90;;;10.68;100.00;97332.25;5059329;28;20587;-83
2021/05/15 00:46:57;;;;;;;3.00;2.20;;;9.80;99.90;;;10.66;100.00;97333.44;5062076;28;20456;-83
2021/05/15 00:49:24;;;;;;;2.40;2.20;;;9.70;99.90;;;10.57;100.00;97325.84;5065009;28;20843;-82
2021/05/15 00:51:52;;;;;;;4.70;1.73;;;9.60;99.90;;;10.68;100.00;97323.59;5061646;28;20456;-83
2021/05/15 00:54:20;;;;;;;4.37;1.70;;;9.70;99.90;;;10.75;100.00;97322.59;5062358;28;20469;-83
2021/05/15 00:56:47;;;;;;;2.03;1.50;;;9.80;99.90;;;10.83;100.00;97317.09;5063590;28;20472;-83
2021/05/15 00:59:15;;;;;;;1.93;1.50;;;9.90;99.90;;;10.93;100.00;97317.47;5065996;28;20906;-82
2021/05/15 01:01:42;;;;;;;2.20;1.73;;;10.00;99.90;;;10.99;100.00;97318.47;5061171;28;20455;-83
2021/05/15 01:04:09;;;;;;;2.83;1.87;;;10.10;99.90;;;11.02;100.00;97308.41;5060935;28;20546;-83
2021/05/15 01:06:38;;;;;;;3.67;1.73;;;10.20;99.90;;;11.07;100.00;97311.19;5057044;28;20464;-83
2021/05/15 01:09:06;;;;;;;1.63;1.37;;;10.40;99.90;;;11.06;100.00;97309.59;5068185;28;20537;-83
2021/05/15 01:11:34;;;;;;;2.57;1.83;;;10.30;99.90;;;11.07;100.00;97305.16;5066568;28;20464;-83
2021/05/15 01:14:02;;;;;;;2.23;2.03;;;10.30;99.90;;;11.11;100.00;97298.47;5059029;28;20787;-82
2021/05/15 01:16:31;;;;;;;2.73;1.90;;;10.40;99.90;;;11.14;100.00;97308.56;5065507;28;20802;-83
2021/05/15 01:18:59;;;;;;;7.20;2.13;;;10.40;99.90;;;11.15;100.00;97306.72;5064113;28;20527;-83
2021/05/15 01:21:27;;;;;;;2.33;1.63;;;10.40;99.90;;;11.04;100.00;97308.19;5063534;28;20471;-83
2021/05/15 01:23:54;;;;;;;2.70;2.17;;;10.20;99.90;;;11.11;100.00;97312.38;5064590;28;20563;-83
2021/05/15 01:26:23;;;;;;;3.93;1.80;;;10.30;99.90;;;11.14;100.00;97300.72;5062691;28;20976;-83
2021/05/15 01:28:54;;;;;;;1.77;1.63;;;10.40;99.90;;;11.18;100.00;97307.09;5062875;28;20579;-83
2021/05/15 01:31:22;;;;;;;2.30;2.10;;;10.30;99.90;;;11.19;100.00;97311.34;5060521;28;20518;-83
2021/05/15 01:33:49;;;;;;;2.60;2.33;;;10.40;99.90;;;11.13;100.00;97299.09;5062627;28;20552;-82
2021/05/15 01:36:16;;;;;;;4.63;1.77;;;10.40;99.90;;;11.15;100.00;97302.28;5062338;28;20460;-83
2021/05/15 01:38:45;;;;;;;2.90;2.67;;;10.30;99.90;;;11.13;100.00;97298.28;5063162;28;20504;-83
2021/05/15 01:41:14;;;;;;;3.70;2.03;;;10.40;99.90;;;11.22;100.00;97297.03;5057619;28;20494;-83
2021/05/15 01:43:42;;;;;;;2.63;2.07;;;10.40;99.90;;;11.26;100.00;97300.84;5059917;28;20548;-83
2021/05/15 01:46:11;;;;;;;2.27;2.03;;;10.40;99.90;;;11.19;100.00;97282.56;5061072;28;20484;-83
2021/05/15 01:48:39;;;;;;;2.93;2.07;;;10.40;99.90;;;11.19;100.00;97287.78;5066109;28;20476;-83
2021/05/15 01:51:08;;;;;;;2.83;2.50;;;10.40;99.90;;;11.16;100.00;97287.41;5065668;28;20471;-83
2021/05/15 01:53:39;;;;;;;2.27;2.00;;;10.40;99.90;;;11.18;100.00;97278.31;5060725;28;20558;-83
2021/05/15 01:56:09;;;;;;;3.63;2.23;;;10.50;99.90;;;11.12;100.00;97292.25;5068332;28;20456;-83
2021/05/15 01:58:37;;;;;;;2.93;2.17;;;10.40;99.90;;;11.10;100.00;97287.25;5063174;28;20533;-82
2021/05/15 02:01:05;;;;;;;2.93;2.07;;;10.40;99.90;;;11.11;100.00;97285.41;5064607;28;20551;-83
2021/05/15 02:03:32;;;;;;;3.17;2.27;;;10.40;99.90;;;11.15;100.00;97281.34;5060044;28;20464;-82
2021/05/15 02:06:00;;;;;;;2.97;2.07;;;10.40;99.90;;;11.20;100.00;97288.59;5064244;28;20805;-82
2021/05/15 02:08:27;;;;;;;5.50;2.23;;;10.50;99.90;;;11.22;100.00;97274.28;5062606;28;20477;-83
2021/05/15 02:10:56;;;;;;;2.47;1.97;;;10.50;99.90;;;11.24;100.00;97280.13;5066475;28;20464;-83
2021/05/15 02:13:26;;;;;;;3.23;2.13;;;10.50;99.90;;;11.21;100.00;97272.66;5061405;28;20517;-83
2021/05/15 02:15:55;;;;;;;2.57;1.63;;;10.50;99.90;;;11.24;100.00;97277.50;5065706;28;20484;-83
2021/05/15 02:18:23;;;;;;;1.73;1.63;;;10.50;99.90;;;11.19;100.00;97277.31;5060392;28;20480;-84
2021/05/15 02:20:51;;;;;;;2.13;1.70;;;10.40;99.90;;;11.24;100.00;97272.28;5065866;28;20472;-83
2021/05/15 02:23:19;;;;;;;1.47;1.37;;;10.40;99.90;;;11.13;100.00;97277.34;5057334;28;20477;-83
2021/05/15 02:25:47;;;;;;;1.60;1.50;;;10.40;99.90;;;11.12;100.00;97281.78;5066099;28;20468;-83
2021/05/15 02:28:15;;;;;;;1.50;1.40;;;10.40;99.90;;;11.14;100.00;97279.78;5062581;28;20828;-82
2021/05/15 02:30:44;;;;;;;2.03;1.63;;;10.40;99.90;;;11.09;100.00;97271.75;5059496;28;20967;-83
2021/05/15 02:33:11;;;;;;;2.10;1.20;;;10.30;99.90;;;11.13;100.00;97287.81;5063798;28;20517;-83
2021/05/15 02:35:38;;;;;;;2.70;1.33;;;10.40;99.90;;;11.14;100.00;97284.19;5061418;28;20543;-83
2021/05/15 02:38:09;;;;;;;1.40;1.30;;;10.30;99.90;;;11.13;100.00;97285.22;5063840;28;20474;-83
2021/05/15 02:40:37;;;;;;;1.63;1.43;;;10.40;99.90;;;11.13;100.00;97283.41;5065420;28;21035;-83
2021/05/15 02:43:04;;;;;;;1.67;1.33;;;10.40;99.90;;;11.13;100.00;97278.16;5068512;28;20854;-83
2021/05/15 02:45:32;;;;;;;1.60;1.50;;;10.40;99.90;;;11.00;100.00;97278.22;5067020;28;20507;-83
2021/05/15 02:48:00;;;;;;;3.13;1.60;;;10.20;99.90;;;10.97;100.00;97274.19;5063278;28;20472;-83
2021/05/15 02:50:27;;;;;;;2.87;1.60;;;10.10;99.90;;;10.98;100.00;97272.38;5064593;28;20737;-83
2021/05/15 02:52:54;;;;;;;1.33;1.23;;;10.10;99.90;;;11.00;100.00;97275.63;5070564;28;20448;-83
2021/05/15 02:55:23;;;;;;;1.80;1.30;;;10.20;99.90;;;10.94;100.00;97272.00;5067639;28;20456;-83
2021/05/15 02:57:51;;;;;;;1.20;1.10;;;10.00;99.90;;;10.95;100.00;97271.00;5061487;28;20467;-83
2021/05/15 03:00:23;;;;;;;2.53;1.47;;;10.10;99.90;;;10.99;100.00;97269.59;5066889;28;20526;-83
2021/05/15 03:02:50;;;;;;;1.70;1.60;;;10.20;99.90;;;11.00;100.00;97270.38;5064194;28;20946;-83
2021/05/15 03:05:21;;;;;;;1.30;1.20;;;10.10;99.90;;;10.78;100.00;97269.88;5067721;28;20543;-82
2021/05/15 03:07:48;;;;;;;1.33;1.23;;;9.90;99.90;;;10.89;100.00;97266.59;5066798;28;20875;-82
2021/05/15 03:10:16;;;;;;;1.57;1.47;;;10.00;99.90;;;10.95;100.00;97262.34;5063235;28;20496;-82
2021/05/15 03:12:43;;;;;;;5.93;1.50;;;10.20;99.90;;;10.92;100.00;97270.63;5062895;28;20461;-83
2021/05/15 03:15:13;;;;;;;5.33;1.40;;;10.10;99.90;;;10.95;100.00;97271.00;5065758;28;21007;-83
2021/05/15 03:17:42;;;;;;;1.50;1.33;;;10.20;99.90;;;10.90;100.00;97267.38;5064917;28;20514;-83
2021/05/15 03:20:13;;;;;;;2.47;1.60;;;10.20;99.90;;;10.91;100.00;97269.00;5065403;28;20953;-82
2021/05/15 03:22:40;;;;;;;2.27;1.70;;;10.20;99.90;;;10.89;100.00;97276.25;5066613;28;20835;-82
2021/05/15 03:25:09;;;;;;;1.83;1.60;;;10.20;99.90;;;10.91;100.00;97269.81;5066930;28;20471;-82
2021/05/15 03:27:36;;;;;;;3.97;1.87;;;10.20;99.90;;;10.91;100.00;97269.81;5065036;28;20481;-82
2021/05/15 03:30:05;;;;;;;2.77;1.90;;;10.20;99.90;;;10.91;100.00;97269.81;5062321;28;20460;-83
2021/05/15 03:32:32;;;;;;;3.33;1.80;;;10.30;99.90;;;10.75;100.00;97272.09;5067705;28;20862;-83
2021/05/15 03:35:00;;;;;;;2.00;1.80;;;10.00;99.90;;;10.78;100.00;97263.84;5065914;28;20456;-83
2021/05/15 03:37:26;;;;;;;1.60;1.50;;;10.00;99.90;;;10.76;100.00;97263.25;5063328;28;20464;-83
2021/05/15 03:39:54;;;;;;;2.50;1.50;;;10.00;99.90;;;10.78;100.00;97271.69;5066067;28;20855;-83
2021/05/15 03:42:21;;;;;;;1.60;1.50;;;10.00;99.90;;;10.86;100.00;97271.44;5065979;28;20460;-83
2021/05/15 03:44:48;;;;;;;1.93;1.80;;;10.10;99.90;;;10.70;100.00;97272.69;5066975;28;20891;-83
2021/05/15 03:47:15;;;;;;;3.20;1.90;;;9.90;99.90;;;10.74;100.00;97273.09;5062885;28;20470;-83
2021/05/15 03:49:42;;;;;;;2.50;1.90;;;10.00;99.90;;;10.74;100.00;97273.91;5063779;28;20822;-83
2021/05/15 03:52:09;;;;;;;4.90;2.70;;;10.00;99.90;;;10.75;100.00;97274.72;5061417;28;20465;-83
2021/05/15 03:54:36;;;;;;;4.27;2.27;;;10.10;99.90;;;10.78;100.00;97274.28;5066380;28;20478;-82
2021/05/15 03:57:04;;;;;;;3.57;2.53;;;10.10;99.90;;;10.72;100.00;97275.13;5064545;28;20609;-82
2021/05/15 03:59:31;;;;;;;3.20;2.80;;;10.00;99.90;;;10.72;100.00;97280.34;5061527;28;20492;-83
2021/05/15 04:01:58;;;;;;;5.67;3.40;;;10.00;99.90;;;10.70;100.00;97277.94;5060580;28;20444;-82
2021/05/15 04:04:25;;;;;;;9.90;3.50;;;10.10;99.90;;;10.63;100.00;97273.72;5064509;28;20946;-83
2021/05/15 04:06:52;;;;;;;4.60;3.33;;;9.90;99.90;;;10.62;100.00;97266.91;5061012;28;20464;-83
2021/05/15 04:09:19;;;;;;;4.73;3.10;;;9.90;99.90;;;10.53;100.00;97272.38;5065827;28;20984;-82
2021/05/15 04:11:46;;;;;;;5.33;3.80;;;9.70;99.90;;;10.58;100.00;97275.19;5066387;28;20476;-83
2021/05/15 04:14:26;;;;;;;12.50;3.70;;;9.90;99.90;;;10.53;100.00;97267.13;5062291;28;20724;-83
2021/05/15 04:17:03;;;;;;;3.70;2.80;;;9.80;99.90;;;10.61;100.00;97276.56;5063676;28;20563;-82
2021/05/15 04:19:30;;;;;;;5.57;4.07;;;9.80;99.90;;;10.50;100.00;97277.19;5064185;28;21129;-83
2021/05/15 04:21:57;;;;;;;4.10;3.70;;;9.70;99.90;;;10.47;100.00;97275.00;5060939;28;20488;-83
2021/05/15 04:24:26;;;;;;;6.60;3.60;;;9.60;99.90;;;10.50;100.00;97278.00;5068482;28;20547;-83
2021/05/15 04:26:54;;;;;;;5.17;3.60;;;9.70;99.90;;;10.57;100.00;97285.81;5063294;28;20907;-82
2021/05/15 04:29:23;;;;;;;6.40;3.97;;;9.80;99.90;;;10.63;100.00;97278.97;5064094;28;20972;-82
2021/05/15 04:31:53;;;;;;;5.40;3.73;;;10.00;99.90;;;10.57;100.00;97281.41;5064923;28;20468;-83
2021/05/15 04:34:21;;;;;;;5.13;3.83;;;9.90;99.90;;;10.58;100.00;97283.03;5061834;28;20464;-84
2021/05/15 04:36:48;;;;;;;5.00;4.27;;;9.80;99.90;;;10.64;100.00;97289.22;5065377;28;20972;-83
2021/05/15 04:39:15;;;;;;;3.83;3.40;;;10.00;99.90;;;10.68;100.00;97279.16;5065681;28;20516;-83
2021/05/15 04:41:42;;;;;;;7.80;4.20;;;9.90;99.90;;;10.64;100.00;97285.81;5064915;28;20464;-83
2021/05/15 04:44:09;;;;;;;4.47;3.77;;;9.80;99.90;;;10.70;100.00;97283.16;5066731;28;21052;-83
2021/05/15 04:46:37;;;;;;;7.07;3.77;;;9.90;99.90;;;10.73;100.00;97287.16;5066304;28;20511;-82
2021/05/15 04:49:05;;;;;;;5.60;3.70;;;10.00;99.90;;;10.74;100.00;97283.56;5064019;28;20558;-83
2021/05/15 04:51:32;;;;;;;4.00;3.40;;;9.90;99.90;;;10.78;100.00;97289.97;5059531;28;20547;-83
2021/05/15 04:54:01;;;;;;;6.00;3.83;;;10.00;99.90;;;10.80;100.00;97282.72;5065843;28;20535;-83
2021/05/15 04:56:29;;;;;;;5.03;3.60;;;10.00;99.90;;;10.74;100.00;97288.78;5052984;28;20502;-83
2021/05/15 04:58:56;;;;;;;8.10;4.97;;;9.90;99.90;;;10.71;100.00;97284.78;5061824;28;20857;-83
2021/05/15 05:01:23;;;;;;;4.70;4.10;;;10.00;99.90;;;10.78;100.00;97274.28;5064057;28;20888;-83
2021/05/15 05:03:51;;;;;;;6.13;4.30;;;10.10;99.90;;;10.80;100.00;97272.25;5061049;28;20495;-82
2021/05/15 05:06:18;;;;;;;4.97;3.97;;;10.10;99.90;;;10.81;100.00;97274.69;5063957;28;21484;-83
2021/05/15 05:08:45;;;;;;;7.60;3.83;;;10.00;99.90;;;10.80;100.00;97272.25;5065845;28;20472;-83
2021/05/15 05:11:12;;;;;;;4.77;4.10;;;10.10;99.90;;;10.84;100.00;97268.22;5064995;28;20896;-83
2021/05/15 05:13:39;;;;;;;5.80;4.27;;;10.10;99.90;;;10.77;100.00;97273.47;5063960;28;20456;-83
2021/05/15 05:16:06;;;;;;;4.80;4.27;;;10.00;99.90;;;10.64;100.00;97285.81;5067650;28;20988;-83
2021/05/15 05:18:33;;;;;;;5.83;4.10;;;9.80;99.90;;;10.71;100.00;97278.75;5068823;28;20460;-84
2021/05/15 05:21:02;;;;;;;11.23;5.23;;;9.80;99.90;;;10.71;100.00;97286.59;5067605;28;20539;-83
2021/05/15 05:23:29;;;;;;;8.73;4.70;;;9.80;99.90;;;10.81;100.00;97273.88;5065986;28;20456;-83
2021/05/15 05:25:56;;;;;;;6.93;4.90;;;9.90;99.90;;;10.85;100.00;97275.06;5066123;28;20818;-82
2021/05/15 05:28:26;;;;;;;6.50;4.40;;;10.00;99.90;;;10.90;100.00;97267.38;5065226;28;20948;-83
2021/05/15 05:30:53;;;;;;;12.33;4.50;;;10.00;99.90;;;10.93;100.00;97267.78;5060891;28;20555;-83
2021/05/15 05:33:19;;;;;;;5.83;4.60;;;10.10;99.90;;;10.97;100.00;97270.78;5065038;28;20468;-83
2021/05/15 05:35:47;;;;;;;7.13;5.07;;;10.10;99.90;;;10.98;100.00;97273.19;5064257;28;20456;-83
2021/05/15 05:38:15;;;;;;;5.47;4.20;;;10.20;99.90;;;11.07;100.00;97264.09;5065864;28;20471;-83
2021/05/15 05:40:42;;;;;;;4.97;4.17;;;10.30;99.90;;;11.08;100.00;97262.28;5063624;28;20517;-83
2021/05/15 05:43:09;;;;;;;9.60;4.67;;;10.40;99.90;;;11.10;100.00;97262.88;5067787;28;20517;-83
2021/05/15 05:45:36;;;;;;;6.63;4.60;;;10.30;99.90;;;11.14;100.00;97264.06;5059412;28;21103;-84
2021/05/15 05:48:03;;;;;;;5.57;4.40;;;10.40;99.90;;;11.17;100.00;97263.66;5064026;28;20460;-83
2021/05/15 05:50:30;;;;;;;8.00;4.40;;;10.40;99.90;;;11.20;100.00;97262.44;5056491;28;20968;-83
2021/05/15 05:52:57;;;;;;;6.30;4.90;;;10.40;99.90;;;11.15;100.00;97265.66;5062259;28;20471;-83
2021/05/15 05:55:25;;;;;;;7.00;4.17;;;10.40;99.90;;;11.19;100.00;97260.81;5064654;28;20467;-83
2021/05/15 05:57:51;;;;;;;6.80;4.50;;;10.50;99.90;;;11.21;100.00;97264.81;5053806;28;20464;-83
2021/05/15 06:00:20;;;;;;;13.20;4.30;;;10.50;99.90;;;11.21;100.00;97272.66;5061734;28;20828;-83
2021/05/15 06:02:47;;;;;;;11.47;4.37;;;10.40;99.90;;;11.23;100.00;97262.81;5058622;28;20914;-83
2021/05/15 06:05:14;;;;;;;8.00;4.77;;;10.40;99.90;;;11.27;100.00;97274.47;5065508;28;20546;-83
2021/05/15 06:07:40;;;;;;;5.07;4.40;;;10.50;99.90;;;11.25;100.00;97280.91;5059123;28;20468;-83
2021/05/15 06:10:08;;;;;;;7.67;4.53;;;10.40;99.90;;;11.24;100.00;97269.66;5067265;28;20535;-83
2021/05/15 06:12:36;;;;;;;4.97;3.97;;;10.50;99.90;;;11.27;100.00;97273.66;5060276;28;20460;-83
2021/05/15 06:15:05;;;;;;;5.43;4.30;;;10.50;99.90;;;11.31;100.00;97270.41;5064809;28;21016;-83
2021/05/15 06:17:32;;;;;;;8.77;5.07;;;10.60;99.90;;;11.39;100.00;97270.16;5066962;28;20471;-83
2021/05/15 06:20:00;;;;;;;8.57;4.47;;;10.70;99.90;;;11.47;100.00;97269.91;5062420;28;20494;-83
2021/05/15 06:22:27;;;;;;;7.00;5.00;;;10.80;99.90;;;11.48;100.00;97268.09;5064132;28;20456;-82
2021/05/15 06:24:54;;;;;;;4.63;4.17;;;10.80;99.90;;;11.55;100.00;97266.22;5067614;28;20471;-83
2021/05/15 06:27:21;;;;;;;9.90;6.00;;;10.80;99.90;;;11.56;100.00;97255.53;5068233;28;20444;-83
2021/05/15 06:29:48;;;;;;;7.33;5.03;;;10.90;99.90;;;11.56;100.00;97262.56;5057691;28;20552;-82
2021/05/15 06:32:15;;;;;;;6.93;4.90;;;10.90;99.90;;;11.56;100.00;97258.16;5066795;28;20471;-82
2021/05/15 06:34:42;;;;;;;5.00;4.50;;;11.00;99.90;;;11.51;100.00;97265.06;5066565;28;20868;-83
2021/05/15 06:37:09;;;;;;;8.67;5.17;;;10.80;99.90;;;11.59;100.00;97262.97;5066035;28;20551;-83
2021/05/15 06:39:36;;;;;;;7.50;5.80;;;10.90;99.90;;;11.64;100.00;97259.72;5066695;28;20587;-83
2021/05/15 06:42:03;;;;;;;8.60;5.40;;;11.00;99.90;;;11.65;100.00;97260.50;5068852;28;20475;-83
2021/05/15 06:44:29;;;;;;;6.63;5.03;;;11.00;99.90;;;11.63;100.00;97264.13;5071264;28;20825;-83
2021/05/15 06:46:57;;;;;;;9.60;5.53;;;10.90;99.90;;;11.65;100.00;97266.56;5066558;28;20479;-83
2021/05/15 06:49:24;;;;;;;8.00;5.17;;;10.90;99.90;;;11.72;100.00;97264.72;5063017;28;20463;-82
2021/05/15 06:51:51;;;;;;;9.13;6.17;;;11.00;99.90;;;11.73;100.00;97257.69;5063732;28;20464;-83
2021/05/15 06:54:18;;;;;;;7.60;5.03;;;11.00;99.90;;;11.60;100.00;97263.75;5067018;28;20452;-83
2021/05/15 06:56:45;;;;;;;6.57;5.80;;;10.80;99.90;;;11.67;100.00;97258.47;5069226;28;20472;-82
2021/05/15 06:59:11;;;;;;;8.93;6.03;;;10.90;99.90;;;11.72;100.00;97253.44;5061957;28;21083;-83
2021/05/15 07:01:38;;;;;;;9.83;5.60;;;11.00;99.90;;;11.70;100.00;97252.84;5067137;28;20445;-83
2021/05/15 07:04:06;;;;;;;7.80;5.17;;;10.90;99.90;;;11.73;100.00;97255.06;5062822;28;20869;-82
2021/05/15 07:06:33;;;;;;;10.73;6.60;;;11.00;99.90;;;11.75;100.00;97250.41;5067851;28;20499;-83
2021/05/15 07:09:00;;;;;;;7.23;5.50;;;11.00;99.90;;;11.74;100.00;97246.16;5070624;28;20471;-83
2021/05/15 07:11:27;;;;;;;9.63;5.50;;;11.00;99.90;;;11.65;100.00;97252.66;5067668;28;20464;-83
2021/05/15 07:13:53;;;;;;;9.23;5.90;;;10.80;99.90;;;11.70;100.00;97243.13;5062371;28;21023;-83
2021/05/15 07:16:20;;;;;;;9.40;5.77;;;10.90;99.90;;;11.68;100.00;97247.00;5065360;28;20517;-83
2021/05/15 07:18:47;;;;;;;10.60;5.70;;;10.90;99.90;;;11.65;100.00;97250.84;5067273;28;20488;-83
2021/05/15 07:21:15;;;;;;;8.23;5.90;;;10.80;99.90;;;11.76;100.00;97246.78;5059965;28;20870;-82
2021/05/15 07:23:42;;;;;;;8.70;6.00;;;10.90;99.90;;;11.78;100.00;97239.47;5066881;28;20816;-83
2021/05/15 07:26:10;;;;;;;10.23;6.50;;;10.90;99.90;;;11.77;100.00;97233.44;5062216;28;20576;-83
2021/05/15 07:28:38;;;;;;;10.77;6.50;;;11.00;99.90;;;11.77;100.00;97243.13;5068027;28;20541;-83
2021/05/15 07:31:05;;;;;;;11.10;5.60;;;11.00;99.90;;;11.79;100.00;97241.09;5067806;28;20551;-83
2021/05/15 07:33:32;;;;;;;8.33;5.93;;;11.00;99.90;;;11.83;100.00;97244.91;5067143;28;20467;-83
2021/05/15 07:35:59;;;;;;;9.40;6.10;;;11.10;99.90;;;11.79;100.00;97236.66;5067194;28;20477;-83
2021/05/15 07:38:27;;;;;;;8.43;5.87;;;11.00;99.90;;;11.77;100.00;97243.13;5063300;28;21022;-82
2021/05/15 07:40:55;;;;;;;9.93;6.17;;;10.90;99.90;;;11.76;100.00;97237.09;5065279;28;21575;-82
2021/05/15 07:43:23;;;;;;;8.30;6.17;;;10.90;99.90;;;11.76;100.00;97233.69;5061513;28;20477;-83
2021/05/15 07:45:51;;;;;;;12.53;6.10;;;11.00;99.90;;;11.82;100.00;97230.19;5067150;28;20496;-83
2021/05/15 07:48:28;;;;;;;8.00;5.40;;;11.10;99.90;;;11.77;100.00;97235.25;5060376;28;20865;-83
2021/05/15 07:50:56;;;;;;;9.10;5.60;;;11.10;99.90;;;11.75;100.00;97237.31;5064557;28;20961;-82
2021/05/15 07:53:24;;;;;;;8.57;5.80;;;11.00;99.90;;;11.75;100.00;97230.25;5057598;28;20476;-83
2021/05/15 07:55:53;;;;;;;6.80;5.20;;;11.00;99.90;;;11.80;100.00;97238.25;5063754;28;20552;-82
2021/05/15 07:58:20;;;;;;;7.13;4.70;;;11.10;99.90;;;11.81;100.00;97232.00;5064704;28;20865;-83
2021/05/15 08:00:47;;;;;;;10.33;5.50;;;11.10;99.90;;;11.80;100.00;97238.25;5062799;28;20580;-82
2021/05/15 08:03:14;;;;;;;6.43;5.10;;;11.00;99.90;;;11.84;100.00;97241.25;5063831;28;20459;-83
2021/05/15 08:05:41;;;;;;;8.47;4.93;;;11.10;99.90;;;11.81;100.00;97236.44;5063782;28;20468;-83
2021/05/15 08:08:08;;;;;;;6.77;4.77;;;11.10;99.90;;;11.86;100.00;97229.56;5067191;28;20811;-82
2021/05/15 08:10:36;;;;;;;8.43;5.70;;;11.10;99.90;;;11.89;100.00;97225.69;5066066;28;20559;-83
2021/05/15 08:13:04;;;;;;;10.70;5.80;;;11.10;99.90;;;11.97;100.00;97231.47;5065558;28;20551;-83
2021/05/15 08:15:31;;;;;;;6.30;5.40;;;11.20;99.90;;;12.01;100.00;97226.56;5065877;28;20950;-83
2021/05/15 08:17:58;;;;;;;7.30;5.40;;;11.20;99.90;;;12.01;100.00;97227.38;5069032;28;20479;-83
2021/05/15 08:20:25;;;;;;;5.80;5.10;;;11.20;99.90;;;12.08;100.00;97219.44;5063551;28;20859;-83
2021/05/15 08:22:52;;;;;;;9.57;5.30;;;11.40;99.90;;;12.08;100.00;97219.44;5062587;28;21007;-82
2021/05/15 08:25:21;;;;;;;4.73;3.97;;;11.30;99.90;;;12.11;100.00;97219.03;5065628;28;20551;-83
2021/05/15 08:27:52;;;;;;;7.40;4.30;;;11.30;99.90;;;12.11;100.00;97221.66;5061866;28;20460;-83
2021/05/15 08:30:22;;;;;;;6.40;3.70;;;11.30;99.90;;;12.16;100.00;97229.66;5065768;28;20486;-82
2021/05/15 08:32:52;;;;;;;5.60;3.97;;;11.30;99.90;;;12.24;100.00;97220.72;5068450;28;20539;-84
2021/05/15 08:35:19;;;;;;;4.60;3.20;;;11.50;99.90;;;12.29;100.00;97216.41;5065968;28;20555;-82
2021/05/15 08:37:47;;;;;;;5.40;3.23;;;11.50;99.90;;;12.39;100.00;97232.44;5059723;28;20464;-82
2021/05/15 08:40:16;;;;;;;3.40;3.10;;;11.70;99.90;;;12.40;100.00;97223.56;5063170;28;20512;-83
2021/05/15 08:42:44;;;;;;;3.10;2.23;;;11.80;99.90;;;12.38;100.00;97219.56;5066521;28;20464;-82
2021/05/15 08:45:14;;;;;;;4.93;2.80;;;11.80;99.90;;;12.44;100.00;97216.06;5059354;28;20494;-83
2021/05/15 08:47:44;;;;;;;2.87;2.53;;;11.70;99.90;;;12.47;100.00;97219.03;5062141;28;20560;-81
2021/05/15 08:50:15;;;;;;;2.67;1.70;;;11.80;99.90;;;12.50;100.00;97218.59;5061467;28;20465;-81
2021/05/15 08:52:47;;;;;;;5.93;2.83;;;11.90;99.90;;;12.51;100.00;97219.41;5064143;28;20810;-82
2021/05/15 08:55:18;;;;;;;2.27;1.93;;;11.80;99.90;;;12.54;100.00;97213.72;5056039;28;20537;-81
2021/05/15 08:57:46;;;;;;;7.37;2.07;;;11.90;99.90;;;12.50;100.00;97212.56;5067135;28;20847;-82
2021/05/15 09:00:16;;;;;;;2.90;1.70;;;11.70;99.90;;;12.55;100.00;97210.09;5067710;28;20500;-82
2021/05/15 09:02:47;;;;;;;2.23;1.90;;;11.80;99.90;;;12.54;100.00;97214.53;5064112;28;20474;-82
2021/05/15 09:05:19;;;;;;;3.77;1.93;;;11.70;99.90;;;12.53;100.00;97218.16;5066973;28;20522;-81
2021/05/15 09:07:53;;;;;;;2.33;1.90;;;11.80;99.90;;;12.58;100.00;97209.66;5066913;28;20529;-82
2021/05/15 09:10:23;;;;;;;9.83;2.00;;;11.80;99.90;;;12.62;100.00;97213.44;5062901;28;20458;-82
2021/05/15 09:13:09;;;;;;;3.63;1.80;;;11.90;99.90;;;12.59;100.00;97213.88;5065024;28;20504;-82
2021/05/15 09:15:43;;;;;;;2.03;1.63;;;11.90;99.90;;;12.55;100.00;97212.72;5064154;28;21004;-79
2021/05/15 09:18:16;;;;;;;45.03;20.00;;;11.80;99.90;;;12.49;100.00;97210.97;5063231;28;20539;-80
2021/05/15 09:20:47;;;;;;;2.50;1.53;;;11.70;99.90;;;12.49;100.00;97206.53;5063835;28;21032;-80
2021/05/15 09:23:19;;;;;;;2.27;1.60;;;11.80;99.90;;;12.53;100.00;97214.72;5067816;28;20443;-80
2021/05/15 09:25:58;;;;;;;2.43;1.53;;;11.80;99.90;;;12.43;100.00;97203.97;5067371;28;20456;-80
2021/05/15 09:28:40;;;;;;;1.83;1.27;;;11.70;99.90;;;12.41;100.00;97209.44;5067540;28;20458;-79
2021/05/15 09:31:19;;;;;;;1.80;1.40;;;11.70;99.90;;;12.39;100.00;97211.47;5067306;28;20936;-80
2021/05/15 09:33:51;;;;;;;1.33;1.20;;;11.60;99.90;;;12.31;100.00;97205.72;5061938;28;20517;-79
2021/05/15 09:36:24;;;;;;;4.40;1.30;;;11.50;99.90;;;12.35;100.00;97201.66;5066743;28;20511;-80
2021/05/15 09:39:10;;;;;;;2.90;1.50;;;11.50;99.90;;;12.32;100.00;97197.63;5066664;28;20940;-80
2021/05/15 09:41:44;;;;;;;1.90;1.67;;;11.50;99.90;;;12.26;100.00;97189.84;5065910;28;20451;-80
2021/05/15 09:44:15;;;;;;;2.60;1.37;;;11.50;99.90;;;12.22;100.00;97180.84;5066750;28;20444;-80
2021/05/15 09:46:46;;;;;;;2.10;1.90;;;11.50;99.90;;;12.21;100.00;97177.41;5063167;28;20476;-80
2021/05/15 09:49:17;;;;;;;2.20;1.90;;;11.40;99.90;;;12.29;100.00;97179.72;5065357;28;20858;-80
2021/05/15 09:51:54;;;;;;;2.40;1.40;;;11.40;99.90;;;12.37;100.00;97176.81;5066364;28;20451;-79
2021/05/15 09:54:25;;;;;;;9.60;5.63;;;11.50;99.90;;;12.44;100.00;97179.34;5063089;28;20956;-80
2021/05/15 09:56:59;;;;;;;5.50;2.27;;;11.70;99.90;;;12.46;100.00;97169.47;5065909;28;20456;-80
2021/05/15 09:59:31;;;;;;;4.13;1.70;;;11.70;99.90;;;12.49;100.00;97177.69;5067191;28;20574;-80
2021/05/15 10:02:02;;;;;;;1.70;1.60;;;11.70;99.90;;;12.56;100.00;97165.25;5070257;28;20482;-80
2021/05/15 10:04:31;;;;;;;3.30;1.90;;;11.80;99.90;;;12.58;100.00;97173.72;5066663;28;20463;-86
2021/05/15 10:07:01;;;;;;;4.97;2.10;;;11.80;99.90;;;12.65;100.00;97167.59;5064584;28;20975;-80
2021/05/15 10:09:33;;;;;;;4.33;2.70;;;11.90;99.90;;;12.63;100.00;97165.22;5060455;28;20473;-80
2021/05/15 10:12:04;;;;;;;2.87;2.40;;;11.80;99.90;;;12.69;100.00;97163.50;5067154;28;20491;-80
2021/05/15 10:14:33;;;;;;;5.63;2.70;;;11.90;99.90;;;12.83;100.00;97155.25;5069976;28;20463;-80
2021/05/15 10:17:01;;;;;;;6.07;2.57;;;12.10;99.90;;;12.80;100.00;97154.88;5068059;28;20439;-80